Airfield :
LOGIN :

Register | Disclaimer

   EN    FR    IT 

 










Legend :    VFR   Marginal VFR   IFR   Intensive IFR   Very Intensive IFR
Visi :
Ceiling :
>= 8 km
>= 3000ft
5 to 8 km
1000 to 3000 ft
1500m to 5 km
500 to 1000 ft
800 to 1500m
200 to 500 ft
< 800m
< 200 ft
Symbols :   Thunderstorms  Fog  Heavy snow  Heavy precipitations  Wind > 20 kt
SIGMETs :     Misc.  Thunderstorms  Icing  Turbulence  Mountain Waves  Volcanic Ashes






- Airport Elevation : 7 ft
- IATA code : ESH


EGKA - Shoreham

CURRENT METAR :
  • 281250Z 18019G29KT 2500 -RADZ BKN005 08/07 Q1004

EXPIRED METARs :
  • 281220Z 17018G28KT 1800 -RA OVC005 07/07 Q1006
  • 281150Z 16019KT 2000 -RA BKN006 07/06 Q1007
  • 281120Z 16017G27KT 2000 -RA BKN006 07/06 Q1008
  • 281050Z 19021KT 3000 -RA BKN006 07/06 Q1008

TAF TAF EGKA
Valid from the 28 at 12:00 until the 28 at 20:00 UTC


281126Z 2812/2820 17020G30KT 6000 -RA BKN006
TEMPO 2812/2817 2500 RADZ
PROB40
TEMPO 2812/2817 BKN003
BECMG 2814/2817 23020G30KT
BECMG 2816/2818 9999 NSW BKN016
PROB30
TEMPO 2817/2820 6000 -RA
PROB40
TEMPO 2818/2820 BKN012
ATIS : +44 1273 467 372



MET'MAP, your aeronautical weather chart ! - Copyright ORBIFLY December 2007 - Disclaimer

ORBIFLY MET'MAP TEAM :

Programming & Development : Alexandra Zaïnal
Concept & original design : Baudouin d'Aumeries
Assistance for programming : Marc-Olivier Méhu
Technical & hardware support : Manuel Goepfert

Contact : metmap@orbifly.com




SOURCES & CREDITS :

   NOAA